createdAt,value
2022-11-19T00:01:35.172Z,2.19
2022-11-19T00:04:02.877Z,2.05
2022-11-19T00:06:30.597Z,2.26
2022-11-19T00:08:58.355Z,2.28
2022-11-19T00:11:41.184Z,2.54
2022-11-19T00:14:12.354Z,2.44
2022-11-19T00:16:40.089Z,2.77
2022-11-19T00:19:08.164Z,3.00
2022-11-19T00:21:35.911Z,2.33
2022-11-19T00:24:03.540Z,1.91
2022-11-19T00:26:31.186Z,2.06
2022-11-19T00:28:58.967Z,2.10
2022-11-19T00:31:28.061Z,2.17
2022-11-19T00:33:55.929Z,1.94
2022-11-19T00:36:24.281Z,2.13
2022-11-19T00:38:52.056Z,2.06
2022-11-19T00:41:20.410Z,2.25
2022-11-19T00:43:48.486Z,1.99
2022-11-19T00:46:17.643Z,2.48
2022-11-19T00:48:47.206Z,2.19
2022-11-19T00:51:15.300Z,2.19
2022-11-19T00:53:43.052Z,2.47
2022-11-19T00:56:12.522Z,2.34
2022-11-19T00:58:40.590Z,2.16
2022-11-19T01:01:09.365Z,2.32
2022-11-19T01:03:38.396Z,2.21
2022-11-19T01:06:08.264Z,2.48
2022-11-19T01:08:35.983Z,2.26
2022-11-19T01:11:07.787Z,2.10
2022-11-19T01:13:36.050Z,1.87
2022-11-19T01:16:05.518Z,1.93
2022-11-19T01:18:33.695Z,2.10
2022-11-19T01:21:01.539Z,2.18
2022-11-19T01:23:30.661Z,1.91
2022-11-19T01:25:58.405Z,2.13
2022-11-19T01:28:26.200Z,1.96
2022-11-19T01:30:53.999Z,1.98
2022-11-19T01:33:22.639Z,2.24
2022-11-19T01:36:01.328Z,2.14
2022-11-19T01:38:30.857Z,2.14
2022-11-19T01:40:59.307Z,1.72
2022-11-19T01:43:45.400Z,1.57
2022-11-19T01:46:14.668Z,2.05
2022-11-19T01:48:45.544Z,2.09
2022-11-19T01:51:15.247Z,2.05
2022-11-19T01:53:45.557Z,1.45
2022-11-19T01:56:13.552Z,1.96
2022-11-19T01:58:42.603Z,1.57
2022-11-19T02:01:11.083Z,1.70
2022-11-19T02:03:39.631Z,1.53
2022-11-19T02:06:08.428Z,1.47
2022-11-19T02:08:39.281Z,1.33
2022-11-19T02:11:22.001Z,1.58
2022-11-19T02:13:57.356Z,1.47
2022-11-19T02:16:28.600Z,1.47
2022-11-19T02:19:00.106Z,1.33
2022-11-19T02:21:33.169Z,1.56
2022-11-19T02:24:29.333Z,1.87
2022-11-19T02:27:37.385Z,1.66
2022-11-19T02:30:12.020Z,1.63
2022-11-19T02:32:48.092Z,1.35
2022-11-19T02:35:21.378Z,1.36
2022-11-19T02:37:53.100Z,1.79
2022-11-19T02:40:24.951Z,1.08
2022-11-19T02:42:58.017Z,1.40
2022-11-19T02:45:30.644Z,1.24
2022-11-19T02:48:02.044Z,1.57
2022-11-19T02:50:32.991Z,1.35
2022-11-19T02:53:00.648Z,1.50
2022-11-19T02:55:28.832Z,1.33
2022-11-19T02:57:59.664Z,1.66
2022-11-19T03:00:47.117Z,1.37
2022-11-19T03:03:33.921Z,1.52
2022-11-19T03:06:04.511Z,1.16
2022-11-19T03:08:32.352Z,1.12
2022-11-19T03:11:08.855Z,1.00
2022-11-19T03:14:03.677Z,0.97
2022-11-19T03:16:44.029Z,0.84
2022-11-19T03:19:19.789Z,0.67
2022-11-19T03:21:52.524Z,0.80
2022-11-19T03:24:24.610Z,0.64
2022-11-19T03:26:55.300Z,0.57
2022-11-19T03:29:23.891Z,0.74
2022-11-19T03:31:55.633Z,0.56
2022-11-19T03:34:24.412Z,0.57
2022-11-19T03:36:54.783Z,0.64
2022-11-19T03:39:23.220Z,0.14
2022-11-19T03:41:52.305Z,0.30
2022-11-19T03:44:23.240Z,0.23
2022-11-19T03:46:56.001Z,0.36
2022-11-19T03:49:28.445Z,0.09
2022-11-19T03:51:59.375Z,-0.19
2022-11-19T03:54:27.105Z,0.08
2022-11-19T03:56:55.821Z,-0.24
2022-11-19T03:59:29.326Z,-0.38
2022-11-19T04:02:01.291Z,-0.10
2022-11-19T04:04:38.001Z,-0.21
2022-11-19T04:07:10.868Z,0.08
2022-11-19T04:09:39.156Z,-0.30
2022-11-19T04:12:08.199Z,0.20
2022-11-19T04:14:35.969Z,-0.22
2022-11-19T04:17:05.038Z,-0.36
2022-11-19T04:19:32.770Z,-0.19
2022-11-19T04:22:00.487Z,-0.06
2022-11-19T04:24:28.238Z,-0.02
2022-11-19T04:26:55.972Z,-0.24
2022-11-19T04:29:23.701Z,-0.36
2022-11-19T04:31:51.414Z,-0.20
2022-11-19T04:34:20.500Z,-0.30
2022-11-19T04:36:48.383Z,-0.07
2022-11-19T04:39:16.159Z,-0.18
2022-11-19T04:41:43.877Z,-0.34
2022-11-19T04:44:11.621Z,-0.28
2022-11-19T04:46:39.299Z,-0.52
2022-11-19T04:49:07.076Z,-0.59
2022-11-19T04:51:36.179Z,-0.48
2022-11-19T04:54:03.903Z,-0.33
2022-11-19T04:56:31.607Z,-0.29
2022-11-19T04:58:59.287Z,-0.66
2022-11-19T05:01:27.043Z,-0.52
2022-11-19T05:03:54.776Z,-0.59
2022-11-19T05:06:22.487Z,-0.41
2022-11-19T05:08:51.560Z,-0.56
2022-11-19T05:11:19.333Z,-0.52
2022-11-19T05:13:47.020Z,-0.81
2022-11-19T05:16:14.722Z,-0.62
2022-11-19T05:18:42.453Z,-1.09
2022-11-19T05:21:10.322Z,-0.92
2022-11-19T05:23:38.054Z,-0.90
2022-11-19T05:26:07.220Z,-0.91
2022-11-19T05:28:38.941Z,-1.00
2022-11-19T05:31:07.268Z,-0.98
2022-11-19T05:33:35.017Z,-1.16
2022-11-19T05:36:02.866Z,-0.75
2022-11-19T05:38:30.571Z,-0.65
2022-11-19T05:40:58.291Z,-1.03
2022-11-19T05:43:27.379Z,-1.05
2022-11-19T05:45:55.018Z,-0.78
2022-11-19T05:48:22.740Z,-1.11
2022-11-19T05:50:50.428Z,-1.03
2022-11-19T05:53:18.063Z,-1.21
2022-11-19T05:55:45.771Z,-1.20
2022-11-19T05:58:13.802Z,-1.27
2022-11-19T06:00:42.966Z,-1.04
2022-11-19T06:03:11.005Z,-1.16
2022-11-19T06:05:40.479Z,-0.91
2022-11-19T06:08:08.369Z,-0.76
2022-11-19T06:10:36.024Z,-1.03
2022-11-19T06:13:03.676Z,-1.13
2022-11-19T06:15:31.407Z,-1.36
2022-11-19T06:18:00.408Z,-1.26
2022-11-19T06:20:28.115Z,-1.04
2022-11-19T06:22:55.837Z,-1.14
2022-11-19T06:25:23.915Z,-1.42
2022-11-19T06:27:51.621Z,-1.40
2022-11-19T06:30:19.529Z,-1.55
2022-11-19T06:32:47.232Z,-1.48
2022-11-19T06:35:16.476Z,-1.12
2022-11-19T06:37:44.131Z,-1.08
2022-11-19T06:40:13.127Z,-1.20
2022-11-19T06:42:40.852Z,-1.52
2022-11-19T06:45:11.450Z,-1.50
2022-11-19T06:47:40.351Z,-1.09
2022-11-19T06:50:09.971Z,-1.20
2022-11-19T06:52:39.360Z,-1.25
2022-11-19T06:55:07.868Z,-1.36
2022-11-19T06:57:35.941Z,-1.61
2022-11-19T07:00:04.108Z,-1.19
2022-11-19T07:02:31.931Z,-1.41
2022-11-19T07:04:59.625Z,-1.41
2022-11-19T07:07:27.532Z,-1.30
2022-11-19T07:09:56.655Z,-1.29
2022-11-19T07:12:24.302Z,-1.13
2022-11-19T07:14:52.177Z,-1.40
2022-11-19T07:17:20.011Z,-1.34
2022-11-19T07:19:47.693Z,-1.19
2022-11-19T07:22:15.453Z,-1.36
2022-11-19T07:24:43.204Z,-1.19
2022-11-19T07:27:12.524Z,-0.93
2022-11-19T07:29:40.236Z,-1.18
2022-11-19T07:32:08.089Z,-1.23
2022-11-19T07:34:36.204Z,-0.93
2022-11-19T07:37:03.934Z,-1.04
2022-11-19T07:39:31.672Z,-1.08
2022-11-19T07:42:16.793Z,-1.09
2022-11-19T07:44:47.904Z,-1.08
2022-11-19T07:47:17.427Z,-1.24
2022-11-19T07:49:45.117Z,-0.88
2022-11-19T07:52:12.896Z,-0.99
2022-11-19T07:54:40.606Z,-0.80
2022-11-19T07:57:08.900Z,-1.17
2022-11-19T07:59:36.591Z,-0.65
2022-11-19T08:02:05.738Z,-1.19
2022-11-19T08:04:33.547Z,-0.89
2022-11-19T08:07:02.471Z,-0.74
2022-11-19T08:09:30.216Z,-0.51
2022-11-19T08:11:57.921Z,-0.76
2022-11-19T08:14:25.643Z,-0.35
2022-11-19T08:17:10.799Z,-0.54
2022-11-19T08:19:39.898Z,-0.49
2022-11-19T08:22:07.815Z,-0.45
2022-11-19T08:24:35.463Z,-0.38
2022-11-19T08:27:03.133Z,-0.44
2022-11-19T08:29:30.780Z,-0.74
2022-11-19T08:31:58.520Z,-0.78
2022-11-19T08:34:26.339Z,-0.23
2022-11-19T08:36:55.365Z,-0.49
2022-11-19T08:39:23.034Z,-0.22
2022-11-19T08:42:08.311Z,-0.02
2022-11-19T08:44:36.048Z,-0.37
2022-11-19T08:47:03.679Z,-0.25
2022-11-19T08:49:31.348Z,-0.41
2022-11-19T08:52:00.384Z,-0.02
2022-11-19T08:54:28.071Z,-0.39
2022-11-19T08:56:55.772Z,0.04
2022-11-19T08:59:23.474Z,0.01
2022-11-19T09:01:51.247Z,0.69
2022-11-19T09:04:19.318Z,-0.21
2022-11-19T09:06:47.167Z,0.21
2022-11-19T09:09:16.408Z,0.35
2022-11-19T09:11:44.064Z,0.06
2022-11-19T09:14:11.934Z,0.06
2022-11-19T09:16:39.641Z,0.11
2022-11-19T09:19:07.288Z,0.14
2022-11-19T09:21:34.936Z,0.02
2022-11-19T09:24:02.614Z,0.03
2022-11-19T09:26:31.692Z,-0.02
2022-11-19T09:28:59.416Z,0.56
2022-11-19T09:31:27.168Z,0.22
2022-11-19T09:33:55.261Z,0.45
2022-11-19T09:36:22.993Z,0.64
2022-11-19T09:38:50.684Z,0.98
2022-11-19T09:41:43.416Z,0.95
2022-11-19T09:44:23.600Z,0.68
2022-11-19T09:46:57.247Z,0.87
2022-11-19T09:49:29.792Z,1.39
2022-11-19T09:51:59.667Z,1.39
2022-11-19T09:54:27.617Z,1.50
2022-11-19T09:57:01.774Z,0.96
2022-11-19T09:59:35.028Z,1.45
2022-11-19T10:02:02.931Z,1.18
2022-11-19T10:04:33.347Z,1.50
2022-11-19T10:07:11.341Z,1.31
2022-11-19T10:09:56.166Z,1.32
2022-11-19T10:12:33.341Z,1.44
2022-11-19T10:15:13.809Z,1.68
2022-11-19T10:17:51.263Z,1.74
2022-11-19T10:20:35.501Z,1.82
2022-11-19T10:23:07.315Z,1.62
2022-11-19T10:25:37.600Z,2.01
2022-11-19T10:28:12.468Z,1.94
2022-11-19T10:30:41.896Z,1.63
2022-11-19T10:33:15.921Z,1.58
2022-11-19T10:35:45.641Z,1.53
2022-11-19T10:38:18.883Z,1.59
2022-11-19T10:40:48.193Z,1.76
2022-11-19T10:43:23.588Z,2.22
2022-11-19T10:45:51.340Z,2.47
2022-11-19T10:48:21.929Z,2.00
2022-11-19T10:50:49.883Z,2.39
2022-11-19T10:53:21.070Z,2.32
2022-11-19T10:55:54.465Z,2.57
2022-11-19T10:58:26.300Z,2.41
2022-11-19T11:00:54.744Z,2.35
2022-11-19T11:03:25.095Z,2.32
2022-11-19T11:06:01.929Z,2.57
2022-11-19T11:08:29.728Z,2.27
2022-11-19T11:10:57.525Z,2.63
2022-11-19T11:13:53.944Z,2.54
2022-11-19T11:16:23.792Z,2.46
2022-11-19T11:18:54.243Z,2.60
2022-11-19T11:21:34.288Z,2.46
2022-11-19T11:24:04.537Z,3.05
2022-11-19T11:26:34.608Z,2.62
2022-11-19T11:29:05.812Z,2.63
2022-11-19T11:31:37.647Z,2.28
2022-11-19T11:34:06.890Z,2.92
2022-11-19T11:36:36.627Z,3.23
2022-11-19T11:39:06.136Z,2.89
2022-11-19T11:44:27.319Z,2.61
2022-11-19T11:46:56.047Z,2.70
2022-11-19T11:49:29.840Z,3.39
2022-11-19T11:52:04.135Z,3.24
2022-11-19T11:54:32.034Z,2.85
2022-11-19T11:57:18.508Z,3.52
2022-11-19T11:59:47.613Z,3.29
2022-11-19T12:02:26.853Z,3.65
2022-11-19T12:04:56.055Z,3.16
2022-11-19T12:07:36.765Z,3.05
2022-11-19T12:10:15.320Z,3.64
2022-11-19T12:12:49.331Z,3.55
2022-11-19T12:15:23.120Z,3.61
2022-11-19T12:17:55.765Z,3.21
2022-11-19T12:20:30.643Z,3.17
2022-11-19T12:23:15.700Z,2.88
2022-11-19T12:25:52.252Z,3.22
2022-11-19T12:28:38.884Z,3.24
2022-11-19T12:31:16.977Z,3.06
2022-11-19T12:33:57.473Z,3.10
2022-11-19T12:36:32.009Z,3.09
2022-11-19T12:39:03.971Z,3.11
2022-11-19T12:41:45.085Z,3.39
2022-11-19T12:44:18.082Z,3.91
2022-11-19T12:46:52.997Z,3.52
2022-11-19T12:49:38.780Z,3.19
2022-11-19T12:52:17.421Z,3.36
2022-11-19T12:54:52.798Z,3.54
2022-11-19T12:57:30.082Z,3.85
2022-11-19T13:00:16.339Z,3.59
2022-11-19T13:02:53.370Z,2.91
2022-11-19T13:05:26.464Z,3.65
2022-11-19T13:07:57.762Z,3.55
2022-11-19T13:10:27.824Z,3.53
2022-11-19T13:12:57.293Z,3.47
2022-11-19T13:15:31.593Z,4.03
2022-11-19T13:18:03.768Z,4.13
2022-11-19T13:20:38.863Z,3.81
2022-11-19T13:23:07.802Z,4.00
2022-11-19T13:25:38.322Z,3.50
2022-11-19T13:28:14.777Z,3.39
2022-11-19T13:30:44.328Z,3.88
2022-11-19T13:33:17.389Z,3.65
2022-11-19T13:35:50.063Z,3.32
2022-11-19T13:38:22.614Z,3.30
2022-11-19T13:40:54.472Z,3.45
2022-11-19T13:43:41.256Z,3.06
2022-11-19T13:46:19.871Z,3.07
2022-11-19T13:48:54.842Z,3.51
2022-11-19T13:51:28.278Z,3.79
2022-11-19T13:54:02.673Z,3.80
2022-11-19T13:56:41.166Z,3.03
2022-11-19T13:59:16.547Z,3.40
2022-11-19T14:02:01.029Z,3.48
2022-11-19T14:04:43.084Z,3.28
2022-11-19T14:07:46.531Z,3.38
2022-11-19T14:10:18.712Z,2.91
2022-11-19T14:12:56.672Z,3.37
2022-11-19T14:15:53.969Z,3.39
2022-11-19T14:18:43.932Z,3.19
2022-11-19T14:22:06.916Z,2.96
2022-11-19T14:25:11.324Z,3.01
2022-11-19T14:27:38.995Z,3.08
2022-11-19T14:30:08.669Z,2.98
2022-11-19T14:32:46.738Z,2.78
2022-11-19T14:35:42.173Z,2.74
2022-11-19T14:38:31.641Z,3.22
2022-11-19T14:41:18.443Z,3.31
2022-11-19T14:44:11.514Z,2.84
2022-11-19T14:46:41.237Z,2.78
2022-11-19T14:49:27.516Z,2.84
2022-11-19T14:51:56.987Z,2.55
2022-11-19T14:54:33.270Z,3.00
2022-11-19T14:57:16.424Z,2.90
2022-11-19T14:59:47.711Z,2.82
2022-11-19T15:02:23.249Z,2.73
2022-11-19T15:04:56.553Z,2.34
2022-11-19T15:07:39.297Z,2.15
2022-11-19T15:10:26.093Z,2.60
2022-11-19T15:13:06.670Z,2.18
2022-11-19T15:15:39.631Z,2.53
2022-11-19T15:18:18.434Z,2.51
2022-11-19T15:21:00.669Z,2.08
2022-11-19T15:23:32.864Z,2.33
2022-11-19T15:26:08.440Z,2.06
2022-11-19T15:28:45.120Z,2.38
2022-11-19T15:31:23.777Z,2.01
2022-11-19T15:34:22.845Z,2.04
2022-11-19T15:36:51.359Z,2.13
2022-11-19T15:39:23.949Z,2.30
2022-11-19T15:42:04.174Z,2.34
2022-11-19T15:44:38.404Z,2.27
2022-11-19T15:47:12.782Z,2.10
2022-11-19T15:49:40.884Z,1.97
2022-11-19T15:52:18.285Z,1.90
2022-11-19T15:54:46.152Z,1.91
2022-11-19T15:57:23.088Z,1.86
2022-11-19T15:59:55.164Z,1.65
2022-11-19T16:02:26.607Z,1.46
2022-11-19T16:04:54.278Z,1.38
2022-11-19T16:07:24.245Z,1.17
2022-11-19T16:09:52.225Z,1.29
2022-11-19T16:12:41.111Z,1.33
2022-11-19T16:15:42.813Z,1.52
2022-11-19T16:18:14.289Z,1.44
2022-11-19T16:20:43.924Z,1.41
2022-11-19T16:23:11.934Z,1.20
2022-11-19T16:25:41.516Z,1.02
2022-11-19T16:28:13.480Z,1.31
2022-11-19T16:30:46.266Z,1.32
2022-11-19T16:33:20.316Z,1.34
2022-11-19T16:35:52.564Z,1.26
2022-11-19T16:38:25.022Z,1.08
2022-11-19T16:41:11.504Z,1.20
2022-11-19T16:43:42.065Z,1.26
2022-11-19T16:46:13.292Z,1.34
2022-11-19T16:48:54.588Z,1.38
2022-11-19T16:51:37.056Z,1.22
2022-11-19T16:54:06.134Z,0.96
2022-11-19T16:56:36.420Z,1.20
2022-11-19T16:59:06.533Z,1.18
2022-11-19T17:01:35.938Z,1.13
2022-11-19T17:04:06.938Z,1.12
2022-11-19T17:06:37.092Z,1.18
2022-11-19T17:09:06.351Z,1.17
2022-11-19T17:11:59.834Z,0.90
2022-11-19T17:14:46.847Z,0.88
2022-11-19T17:17:40.369Z,1.03
2022-11-19T17:20:49.685Z,0.99
2022-11-19T17:23:18.860Z,1.02
2022-11-19T17:25:48.365Z,0.91
2022-11-19T17:28:26.722Z,1.06
2022-11-19T17:30:56.576Z,1.00
2022-11-19T17:33:24.724Z,0.85
2022-11-19T17:35:52.756Z,0.98
2022-11-19T17:38:21.497Z,1.03
2022-11-19T17:40:51.057Z,1.01
2022-11-19T17:43:41.680Z,0.87
2022-11-19T17:46:10.849Z,0.98
2022-11-19T17:48:41.064Z,0.95
2022-11-19T17:51:11.494Z,0.95
2022-11-19T17:53:39.473Z,0.93
2022-11-19T17:56:08.506Z,0.87
2022-11-19T17:58:36.119Z,0.87
2022-11-19T18:01:03.784Z,0.75
2022-11-19T18:03:32.772Z,0.83
2022-11-19T18:06:02.351Z,0.67
2022-11-19T18:08:30.064Z,0.75
2022-11-19T18:10:58.053Z,0.33
2022-11-19T18:13:27.467Z,0.22
2022-11-19T18:15:55.188Z,0.38
2022-11-19T18:18:24.165Z,0.31
2022-11-19T18:20:57.602Z,0.37
2022-11-19T18:23:28.333Z,0.31
2022-11-19T18:25:56.100Z,0.36
2022-11-19T18:28:23.792Z,0.35
2022-11-19T18:30:51.504Z,0.18
2022-11-19T18:33:20.198Z,0.51
2022-11-19T18:35:47.935Z,0.42
2022-11-19T18:38:17.139Z,0.59
2022-11-19T18:40:44.833Z,0.53
2022-11-19T18:43:40.044Z,0.58
2022-11-19T18:46:07.895Z,0.60
2022-11-19T18:48:35.620Z,0.33
2022-11-19T18:51:03.333Z,0.56
2022-11-19T18:53:32.414Z,0.39
2022-11-19T18:56:00.145Z,0.33
2022-11-19T18:58:27.812Z,0.32
2022-11-19T19:00:55.553Z,0.41
2022-11-19T19:03:23.270Z,0.51
2022-11-19T19:05:51.001Z,0.46
2022-11-19T19:08:19.087Z,0.51
2022-11-19T19:10:48.083Z,0.34
2022-11-19T19:13:14.735Z,0.61
2022-11-19T19:15:42.378Z,0.41
2022-11-19T19:18:11.138Z,0.62
2022-11-19T19:20:38.783Z,0.50
2022-11-19T19:23:06.520Z,0.21
2022-11-19T19:25:34.255Z,0.28
2022-11-19T19:28:03.268Z,0.28
2022-11-19T19:30:30.984Z,0.21
2022-11-19T19:32:58.660Z,0.13
2022-11-19T19:35:26.538Z,0.13
2022-11-19T19:37:54.683Z,0.24
2022-11-19T19:40:22.352Z,0.35
2022-11-19T19:42:50.108Z,0.34
2022-11-19T19:45:19.164Z,0.39
2022-11-19T19:47:46.853Z,0.26
2022-11-19T19:50:14.634Z,0.27
2022-11-19T19:52:42.364Z,0.32
2022-11-19T19:55:10.447Z,0.11
2022-11-19T19:57:38.186Z,0.04
2022-11-19T20:00:07.148Z,0.16
2022-11-19T20:02:36.220Z,0.23
2022-11-19T20:05:03.999Z,0.07
2022-11-19T20:07:31.868Z,0.09
2022-11-19T20:09:59.604Z,-0.09
2022-11-19T20:12:48.059Z,-0.25
2022-11-19T20:15:15.964Z,-0.57
2022-11-19T20:17:45.176Z,-0.58
2022-11-19T20:20:13.575Z,-0.68
2022-11-19T20:22:41.194Z,-0.65
2022-11-19T20:25:09.271Z,-0.56
2022-11-19T20:27:37.021Z,-0.47
2022-11-19T20:30:06.037Z,-0.65
2022-11-19T20:32:33.781Z,-0.74
2022-11-19T20:35:02.791Z,-0.78
2022-11-19T20:37:30.464Z,-0.68
2022-11-19T20:39:58.281Z,-0.54
2022-11-19T20:42:43.717Z,-0.33
2022-11-19T20:45:11.459Z,-0.44
2022-11-19T20:47:39.216Z,-0.50
2022-11-19T20:50:08.707Z,-0.55
2022-11-19T20:52:36.440Z,-0.74
2022-11-19T20:55:06.778Z,-0.89
2022-11-19T20:57:34.753Z,-0.98
2022-11-19T21:00:02.544Z,-1.02
2022-11-19T21:02:30.316Z,-0.98
2022-11-19T21:04:58.248Z,-0.85
2022-11-19T21:07:27.488Z,-0.87
2022-11-19T21:09:55.224Z,-1.07
2022-11-19T21:12:23.905Z,-1.10
2022-11-19T21:14:51.624Z,-0.97
2022-11-19T21:17:19.329Z,-1.15
2022-11-19T21:19:47.037Z,-1.14
2022-11-19T21:22:14.800Z,-1.10
2022-11-19T21:24:43.890Z,-1.09
2022-11-19T21:27:11.535Z,-0.87
2022-11-19T21:29:39.350Z,-0.88
2022-11-19T21:32:08.134Z,-0.93
2022-11-19T21:34:35.861Z,-0.93
2022-11-19T21:37:03.526Z,-0.86
2022-11-19T21:39:31.168Z,-1.01
2022-11-19T21:42:00.276Z,-1.10
2022-11-19T21:44:28.016Z,-1.16
2022-11-19T21:46:55.797Z,-1.13
2022-11-19T21:49:23.705Z,-1.04
2022-11-19T21:51:51.530Z,-1.11
2022-11-19T21:54:19.349Z,-1.18
2022-11-19T21:56:47.226Z,-1.18
2022-11-19T21:59:16.312Z,-1.25
2022-11-19T22:01:43.999Z,-1.13
2022-11-19T22:04:13.585Z,-1.23
2022-11-19T22:06:41.587Z,-1.04
2022-11-19T22:09:09.400Z,-1.12
2022-11-19T22:11:37.108Z,-1.16
2022-11-19T22:14:06.118Z,-1.46
2022-11-19T22:16:36.774Z,-1.63
2022-11-19T22:19:05.550Z,-1.73
2022-11-19T22:21:33.623Z,-1.65
2022-11-19T22:24:01.389Z,-1.32
2022-11-19T22:26:29.177Z,-0.97
2022-11-19T22:28:57.026Z,-1.03
2022-11-19T22:31:25.583Z,-1.16
2022-11-19T22:33:55.478Z,-1.46
2022-11-19T22:36:23.891Z,-1.55
2022-11-19T22:38:52.041Z,-1.59
2022-11-19T22:41:21.925Z,-1.55
2022-11-19T22:43:49.817Z,-1.46
2022-11-19T22:46:17.746Z,-1.37
2022-11-19T22:48:45.482Z,-1.26
2022-11-19T22:51:16.100Z,-1.29
2022-11-19T22:53:44.007Z,-1.07
2022-11-19T22:56:13.738Z,-1.00
2022-11-19T22:58:41.682Z,-1.02
2022-11-19T23:01:15.572Z,-1.16
2022-11-19T23:03:43.352Z,-1.10
2022-11-19T23:06:11.024Z,-1.13
2022-11-19T23:08:40.096Z,-0.98
2022-11-19T23:11:08.406Z,-1.20
2022-11-19T23:13:38.957Z,-1.40
2022-11-19T23:16:09.131Z,-1.56
2022-11-19T23:18:38.556Z,-1.63
2022-11-19T23:21:08.109Z,-1.58
2022-11-19T23:23:35.952Z,-1.51
2022-11-19T23:26:05.827Z,-1.14
2022-11-19T23:28:35.450Z,-0.90
2022-11-19T23:31:07.274Z,-0.96
2022-11-19T23:33:34.940Z,-1.04
2022-11-19T23:36:04.077Z,-1.14
2022-11-19T23:38:31.959Z,-1.08
2022-11-19T23:41:00.109Z,-1.10
2022-11-19T23:43:29.899Z,-0.99
2022-11-19T23:46:04.376Z,-1.03
2022-11-19T23:48:32.149Z,-1.23
2022-11-19T23:51:01.920Z,-1.41
2022-11-19T23:53:29.647Z,-1.52
2022-11-19T23:55:57.547Z,-1.65
2022-11-19T23:58:25.211Z,-1.73
